TimeCDT,TemperatureF,Dew PointF,Humidity,Sea Level PressureIn,VisibilityMPH,Wind Direction,Wind SpeedMPH,Gust SpeedMPH,PrecipitationIn,Events,Conditions,WindDirDegrees,DateUTC
12:55 AM,17.1,15.1,92,30.18,10.0,Calm,Calm,-,N/A,,Clear,0,2012-10-31 05:55:00
1:55 AM,14.0,12.0,92,30.17,10.0,Calm,Calm,-,N/A,,Clear,0,2012-10-31 06:55:00
2:55 AM,18.0,14.0,84,30.16,10.0,Calm,Calm,-,N/A,,Clear,0,2012-10-31 07:55:00
3:55 AM,15.1,12.0,88,30.15,10.0,Calm,Calm,-,N/A,,Clear,0,2012-10-31 08:55:00
4:55 AM,14.0,10.9,88,30.13,10.0,Calm,Calm,-,N/A,,Clear,0,2012-10-31 09:55:00
5:55 AM,12.9,10.0,88,30.13,10.0,Calm,Calm,-,N/A,,Clear,0,2012-10-31 10:55:00
6:55 AM,12.9,10.0,88,30.13,10.0,Calm,Calm,-,N/A,,Clear,0,2012-10-31 11:55:00
7:55 AM,12.0,10.0,92,30.12,10.0,Calm,Calm,-,N/A,,Clear,0,2012-10-31 12:55:00
8:55 AM,19.0,14.0,81,30.09,10.0,Calm,Calm,-,N/A,,Clear,0,2012-10-31 13:55:00
9:55 AM,28.0,24.1,85,30.10,10.0,Calm,Calm,-,N/A,,Clear,0,2012-10-31 14:55:00
10:55 AM,30.9,25.0,79,30.09,10.0,Calm,Calm,-,N/A,,Clear,0,2012-10-31 15:55:00
11:55 AM,35.1,24.1,64,30.08,10.0,West,4.6,-,N/A,,Clear,260,2012-10-31 16:55:00
12:55 PM,39.0,21.0,49,30.06,10.0,NNW,4.6,-,N/A,,Clear,330,2012-10-31 17:55:00
1:55 PM,39.9,19.9,45,30.02,10.0,Calm,Calm,-,N/A,,Clear,0,2012-10-31 18:55:00
2:55 PM,42.1,18.0,38,30.00,10.0,Calm,Calm,-,N/A,,Mostly Cloudy,0,2012-10-31 19:55:00
3:55 PM,41.0,19.0,41,29.99,10.0,WSW,3.5,-,N/A,,Overcast,240,2012-10-31 20:55:00
4:55 PM,41.0,15.1,35,30.00,10.0,NW,4.6,-,N/A,,Overcast,310,2012-10-31 21:55:00
5:55 PM,39.0,16.0,39,30.01,10.0,WNW,4.6,-,0.00,Rain,Light Rain,300,2012-10-31 22:55:00
6:55 PM,37.9,19.0,47,30.01,10.0,WNW,4.6,-,0.00,,Overcast,300,2012-10-31 23:55:00
7:55 PM,36.0,23.0,59,30.01,10.0,North,5.8,-,0.00,,Overcast,10,2012-11-01 00:55:00
8:55 PM,35.1,27.0,72,30.00,10.0,NW,4.6,-,N/A,,Overcast,310,2012-11-01 01:55:00
9:37 PM,33.8,26.6,75,29.93,10.0,NW,5.8,-,N/A,,Overcast,310,2012-11-01 02:37:00
9:55 PM,34.0,27.0,75,29.99,10.0,WNW,4.6,-,N/A,,Overcast,290,2012-11-01 02:55:00
10:55 PM,34.0,28.0,79,29.98,10.0,WNW,9.2,-,0.00,Snow,Light Snow,290,2012-11-01 03:55:00
11:24 PM,33.8,30.2,87,29.93,10.0,WNW,10.4,-,0.00,,Overcast,300,2012-11-01 04:24:00
11:41 PM,33.8,30.2,87,29.93,10.0,NW,8.1,-,0.00,,Overcast,310,2012-11-01 04:41:00
11:55 PM,34.0,30.9,89,29.98,10.0,NW,6.9,-,0.00,,Overcast,310,2012-11-01 04:55:00